Observation data for Pampa on 02/14/2017      Previous  Date  Next       Current Mesonet Observations  Soil Data  Daily Summary Page  Observations in Plain Language
KPMS 140600Z 01013G26KT 01/01 A2999 RMK A01 T00090007  RH  100%=      5-min Rain = 0
KPMS 140605Z 25008KT 01/01 A3004 RMK A01 T00100008  RH  100%=      5-min Rain = 0
KPMS 140610Z 33004G9KT 01/01 A3004 RMK A01 T00100009  RH  100%=      5-min Rain = 0
KPMS 140615Z 33006KT 01/01 A3004 RMK A01 T00100008  RH  100%=      5-min Rain = 0
KPMS 140620Z 27007KT 01/01 A3005 RMK A01 T00110009  RH  100%=      5-min Rain = 0
KPMS 140625Z 27006G11KT 01/01 A3005 RMK A01 T00110009  RH  100%=      5-min Rain = 0
KPMS 140630Z 28005KT 01/01 A3006 RMK A01 T00110010  RH  100%=      5-min Rain = 0
KPMS 140635Z 31006KT 01/01 A3006 RMK A01 T00110009  RH  100%=      5-min Rain = 0
KPMS 140640Z 31005KT 01/01 A3007 RMK A01 T00110010  RH  100%=      5-min Rain = 0
KPMS 140645Z 32006KT 01/01 A3007 RMK A01 T00110010  RH  100%=      5-min Rain = 0
KPMS 140650Z 31006KT 01/01 A3007 RMK A01 T00120010  RH  100%=      5-min Rain = 0
KPMS 140655Z 33005KT 01/01 A3007 RMK A01 T00120010  RH  100%=      5-min Rain = 0
KPMS 140700Z 35007KT 01/01 A3007 RMK A01 T00120010  RH  100%=      5-min Rain = 0
KPMS 140705Z 36007KT 01/01 A3006 RMK A01 T00120010  RH  100%=      5-min Rain = 0
KPMS 140710Z 36007KT 01/01 A3006 RMK A01 T00110009  RH  100%=      5-min Rain = 0
KPMS 140715Z 36008KT 01/01 A3005 RMK A01 T00120009  RH  100%=      5-min Rain = 0
KPMS 140720Z 36009KT 01/01 A3005 RMK A01 T00110009  RH  099%=      5-min Rain = 0
KPMS 140725Z 36009KT 01/01 A3004 RMK A01 T00110008  RH  099%=      5-min Rain = 0
KPMS 140730Z 35010KT 01/01 A3004 RMK A01 T00110009  RH  099%=      5-min Rain = 0
KPMS 140735Z 36011KT 01/01 A3004 RMK A01 T00110008  RH  099%=      5-min Rain = 0
KPMS 140740Z 36011KT 01/01 A3004 RMK A01 T00120007  RH  098%=      5-min Rain = 0
KPMS 140745Z 36011KT 01/01 A3004 RMK A01 T00120007  RH  098%=      5-min Rain = 0
KPMS 140750Z 35011KT 01/01 A3003 RMK A01 T00120007  RH  098%=      5-min Rain = 0
KPMS 140755Z 35011KT 01/01 A3003 RMK A01 T00120007  RH  097%=      5-min Rain = 0
KPMS 140800Z 35010KT 01/01 A3004 RMK A01 T00120007  RH  097%=      5-min Rain = 0
KPMS 140805Z 36010KT 01/01 A3004 RMK A01 T00120007  RH  097%=      5-min Rain = 0
KPMS 140810Z 36009KT 01/01 A3004 RMK A01 T00120007  RH  098%=      5-min Rain = 0
KPMS 140815Z 35009KT 01/01 A3004 RMK A01 T00120008  RH  098%=      5-min Rain = 0
KPMS 140820Z 35010KT 01/01 A3004 RMK A01 T00120008  RH  098%=      5-min Rain = 0
KPMS 140825Z 35009KT 01/01 A3004 RMK A01 T00130008  RH  098%=      5-min Rain = 0
KPMS 140830Z 35009KT 01/01 A3004 RMK A01 T00130008  RH  098%=      5-min Rain = 0
KPMS 140835Z 35009KT 01/01 A3004 RMK A01 T00130008  RH  098%=      5-min Rain = 0
KPMS 140840Z 36009KT 01/01 A3004 RMK A01 T00130008  RH  098%=      5-min Rain = 0
KPMS 140845Z 35007KT 01/01 A3004 RMK A01 T00130008  RH  098%=      5-min Rain = 0
KPMS 140850Z 35008KT 01/01 A3004 RMK A01 T00130008  RH  098%=      5-min Rain = 0
KPMS 140855Z 36009KT 01/01 A3004 RMK A01 T00130008  RH  098%=      5-min Rain = 0
KPMS 140900Z 36009KT 01/01 A3003 RMK A01 T00130008  RH  098%=      5-min Rain = 0
KPMS 140905Z 36008KT 01/01 A3003 RMK A01 T00130008  RH  098%=      5-min Rain = 0
KPMS 140910Z 36008KT 01/01 A3003 RMK A01 T00130008  RH  098%=      5-min Rain = 0
KPMS 140915Z 36008KT 01/01 A3003 RMK A01 T00130008  RH  098%=      5-min Rain = 0
KPMS 140920Z 35008KT 01/01 A3002 RMK A01 T00120008  RH  098%=      5-min Rain = 0
KPMS 140925Z 35008KT 01/01 A3003 RMK A01 T00130008  RH  098%=      5-min Rain = 0
KPMS 140930Z 35008KT 01/01 A3002 RMK A01 T00130008  RH  098%=      5-min Rain = 0
KPMS 140935Z 35007KT 01/01 A3003 RMK A01 T00120008  RH  098%=      5-min Rain = 0
KPMS 140940Z 35007KT 01/01 A3003 RMK A01 T00120008  RH  098%=      5-min Rain = 0
KPMS 140945Z 35008KT 01/01 A3002 RMK A01 T00120008  RH  098%=      5-min Rain = 0
KPMS 140950Z 35008KT 01/01 A3002 RMK A01 T00120008  RH  098%=      5-min Rain = 0
KPMS 140955Z 34007KT 01/01 A3002 RMK A01 T00120008  RH  098%=      5-min Rain = 0
KPMS 141000Z 34007KT 01/01 A3002 RMK A01 T00120008  RH  098%=      5-min Rain = 0
KPMS 141005Z 34007KT 01/01 A3003 RMK A01 T00120008  RH  098%=      5-min Rain = 0
KPMS 141010Z 34008KT 01/01 A3002 RMK A01 T00130009  RH  098%=      5-min Rain = 0
KPMS 141015Z 34008KT 01/01 A3003 RMK A01 T00130009  RH  099%=      5-min Rain = 0
KPMS 141020Z 34007KT 01/01 A3003 RMK A01 T00130008  RH  098%=      5-min Rain = 0
KPMS 141025Z 35007KT 01/01 A3004 RMK A01 T00130009  RH  098%=      5-min Rain = 0
KPMS 141030Z 35007KT 01/01 A3004 RMK A01 T00130009  RH  098%=      5-min Rain = 0
KPMS 141035Z 36007KT 01/01 A3004 RMK A01 T00140009  RH  098%=      5-min Rain = 0
KPMS 141040Z 35007KT 01/01 A3004 RMK A01 T00140008  RH  097%=      5-min Rain = 0
KPMS 141045Z 35007KT 01/01 A3004 RMK A01 T00140007  RH  097%=      5-min Rain = 0
KPMS 141050Z 34007KT 01/01 A3004 RMK A01 T00130007  RH  097%=      5-min Rain = 0
KPMS 141055Z 34007KT 01/01 A3004 RMK A01 T00110006  RH  098%=      5-min Rain = 0
KPMS 141100Z 34007KT 01/01 A3004 RMK A01 T00100006  RH  098%=      5-min Rain = 0
KPMS 141105Z 35007KT 01/01 A3004 RMK A01 T00100006  RH  099%=      5-min Rain = 0
KPMS 141110Z 34007KT 01/01 A3004 RMK A01 T00100007  RH  099%=      5-min Rain = 0
KPMS 141115Z 35007KT 01/01 A3004 RMK A01 T00090007  RH  100%=      5-min Rain = 0.01
KPMS 141120Z 34007KT 01/01 A3004 RMK A01 T00080006  RH  100%=      5-min Rain = 0
KPMS 141125Z 34009KT 01/00 A3004 RMK A01 T00060004  RH  100%=      5-min Rain = 0
KPMS 141130Z 34011KT 01/00 A3003 RMK A01 T00050003  RH  100%=      5-min Rain = 0
KPMS 141135Z 34011KT 00/00 A3003 RMK A01 T00030002  RH  100%=      5-min Rain = 0
KPMS 141140Z 35010KT 00/00 A3004 RMK A01 T00030001  RH  100%=      5-min Rain = 0
KPMS 141145Z 35009KT 00/00 A3004 RMK A01 T00020001  RH  100%=      5-min Rain = 0
KPMS 141150Z 35009KT 00/00 A3004 RMK A01 T00020001  RH  100%=      5-min Rain = 0
KPMS 141155Z 35009KT 00/00 A3004 RMK A01 T00020000  RH  100%=      5-min Rain = 0
KPMS 141200Z 35013G21KT 00/00 A3004 RMK A01 T000100-0  RH  100%=      5-min Rain = 0
KPMS 141205Z 34009G16KT 00/M00 A3004 RMK A01 T00011001  RH  100%=      5-min Rain = 0
KPMS 141210Z 33006KT 00/00 A3004 RMK A01 T000000-1  RH  100%=      5-min Rain = 0
KPMS 141215Z 33006KT 00/00 A3005 RMK A01 T00-000-2  RH  100%=      5-min Rain = 0
KPMS 141220Z 33008G15KT M00/M00 A3005 RMK A01 T10011003  RH  100%=      5-min Rain = 0
KPMS 141225Z 33013G19KT M00/M00 A3005 RMK A01 T10011003  RH  100%=      5-min Rain = 0
KPMS 141230Z 34007G12KT M00/M00 A3004 RMK A01 T10011003  RH  100%=      5-min Rain = 0
KPMS 141235Z 34009G14KT M00/M00 A3005 RMK A01 T10011003  RH  100%=      5-min Rain = 0
KPMS 141240Z 35008KT M00/M00 A3004 RMK A01 T10011003  RH  100%=      5-min Rain = 0
KPMS 141245Z 35009G16KT M00/M00 A3004 RMK A01 T10021003  RH  100%=      5-min Rain = 0
KPMS 141250Z 35013G19KT M00/M00 A3005 RMK A01 T10021003  RH  100%=      5-min Rain = 0
KPMS 141255Z 34014G26KT M00/M00 A3004 RMK A01 T10021003  RH  100%=      5-min Rain = 0
KPMS 141300Z 35011KT M00/M00 A3004 RMK A01 T10011003  RH  100%=      5-min Rain = 0
KPMS 141305Z 34015G25KT M00/M00 A3004 RMK A01 T10011003  RH  100%=      5-min Rain = 0
KPMS 141310Z 34022G27KT M00/M00 A3004 RMK A01 T10011003  RH  100%=      5-min Rain = 0
KPMS 141315Z 34011G19KT M00/M00 A3004 RMK A01 T10011003  RH  100%=      5-min Rain = 0
KPMS 141320Z 34011KT M00/M00 A3005 RMK A01 T10011003  RH  100%=      5-min Rain = 0
KPMS 141325Z 34012KT M00/M00 A3005 RMK A01 T10011003  RH  100%=      5-min Rain = 0
KPMS 141330Z 34012KT M00/M00 A3005 RMK A01 T10011003  RH  100%=      5-min Rain = 0
KPMS 141335Z 34013KT M00/M00 A3005 RMK A01 T10011003  RH  100%=      5-min Rain = 0
KPMS 141340Z 34013G18KT M00/M00 A3004 RMK A01 T10011003  RH  100%=      5-min Rain = 0
KPMS 141345Z 34014KT M00/M00 A3004 RMK A01 T10011003  RH  100%=      5-min Rain = 0
KPMS 141350Z 35013G18KT M00/M00 A3005 RMK A01 T10011003  RH  100%=      5-min Rain = 0
KPMS 141355Z 35014KT M00/M00 A3005 RMK A01 T10011002  RH  100%=      5-min Rain = 0
KPMS 141400Z 35014KT M00/M00 A3005 RMK A01 T10011002  RH  100%=      5-min Rain = 0
KPMS 141405Z 35014KT 00/00 A3005 RMK A01 T00-000-2  RH  100%=      5-min Rain = 0
KPMS 141410Z 35016G22KT 00/00 A3005 RMK A01 T00-000-2  RH  100%=      5-min Rain = 0
KPMS 141415Z 35016G22KT 00/00 A3006 RMK A01 T000000-2  RH  100%=      5-min Rain = 0
KPMS 141420Z 36017G22KT 00/00 A3006 RMK A01 T000000-1  RH  100%=      5-min Rain = 0
KPMS 141425Z 36017G22KT 00/00 A3006 RMK A01 T000000-2  RH  100%=      5-min Rain = 0
KPMS 141430Z 36015G20KT 00/00 A3006 RMK A01 T000000-2  RH  100%=      5-min Rain = 0
KPMS 141435Z 36015KT 00/00 A3006 RMK A01 T00-000-2  RH  100%=      5-min Rain = 0
KPMS 141440Z 36015KT 00/00 A3006 RMK A01 T00-000-2  RH  100%=      5-min Rain = 0
KPMS 141445Z 35015KT 00/00 A3007 RMK A01 T00-000-2  RH  100%=      5-min Rain = 0
KPMS 141450Z 35015KT 00/00 A3007 RMK A01 T000000-2  RH  100%=      5-min Rain = 0
KPMS 141455Z 35014KT 00/00 A3007 RMK A01 T000000-1  RH  100%=      5-min Rain = 0
KPMS 141500Z 35013KT 00/M00 A3007 RMK A01 T00011001  RH  100%=      5-min Rain = 0
KPMS 141505Z 34012KT 00/00 A3008 RMK A01 T000000-1  RH  100%=      5-min Rain = 0.01
KPMS 141510Z 34012KT 00/00 A3008 RMK A01 T000000-1  RH  100%=      5-min Rain = 0
KPMS 141515Z 33011KT 00/00 A3008 RMK A01 T000000-1  RH  100%=      5-min Rain = 0
KPMS 141520Z 34012KT 00/00 A3008 RMK A01 T000000-1  RH  100%=      5-min Rain = 0
KPMS 141525Z 33012KT 00/00 A3008 RMK A01 T000000-1  RH  100%=      5-min Rain = 0
KPMS 141530Z 33011KT 00/00 A3009 RMK A01 T000000-1  RH  100%=      5-min Rain = 0
KPMS 141535Z 33012KT 00/M00 A3009 RMK A01 T00011001  RH  100%=      5-min Rain = 0
KPMS 141540Z 34013KT 00/M00 A3009 RMK A01 T00011001  RH  100%=      5-min Rain = 0
KPMS 141545Z 35016G21KT 00/00 A3009 RMK A01 T000100-0  RH  100%=      5-min Rain = 0
KPMS 141550Z 35015KT 00/00 A3009 RMK A01 T000100-0  RH  100%=      5-min Rain = 0
KPMS 141555Z 35015KT 00/M00 A3009 RMK A01 T00011001  RH  100%=      5-min Rain = 0
KPMS 141600Z 35014G19KT 00/M00 A3009 RMK A01 T00011001  RH  100%=      5-min Rain = 0
KPMS 141605Z 35015KT 00/00 A301 RMK A01 T000000-1  RH  100%=      5-min Rain = 0.01
KPMS 141610Z 36013G19KT 00/00 A301 RMK A01 T00-000-2  RH  100%=      5-min Rain = 0
KPMS 141615Z 35013KT 00/00 A301 RMK A01 T00-000-2  RH  100%=      5-min Rain = 0
KPMS 141620Z 35011KT 00/00 A3011 RMK A01 T000000-1  RH  100%=      5-min Rain = 0
KPMS 141625Z 35010KT 00/00 A3011 RMK A01 T000000-1  RH  100%=      5-min Rain = 0
KPMS 141630Z 35011KT 00/00 A3011 RMK A01 T000000-1  RH  100%=      5-min Rain = 0
KPMS 141635Z 34011G17KT 00/00 A3011 RMK A01 T000000-1  RH  100%=      5-min Rain = 0.01
KPMS 141640Z 35014KT 00/00 A3011 RMK A01 T00-000-2  RH  100%=      5-min Rain = 0
KPMS 141645Z 35014KT M00/M00 A3011 RMK A01 T10011002  RH  100%=      5-min Rain = 0
KPMS 141650Z 35015KT M00/M00 A3012 RMK A01 T10011003  RH  100%=      5-min Rain = 0
KPMS 141655Z 35015KT M00/M00 A3012 RMK A01 T10011003  RH  100%=      5-min Rain = 0.01
KPMS 141700Z 35013G18KT M00/M00 A3012 RMK A01 T10011003  RH  100%=      5-min Rain = 0
KPMS 141705Z 35015KT M00/M00 A3012 RMK A01 T10011003  RH  100%=      5-min Rain = 0
KPMS 141710Z 34013KT M00/M00 A3012 RMK A01 T10011003  RH  100%=      5-min Rain = 0
KPMS 141715Z 34013G18KT M00/M00 A3012 RMK A01 T10011003  RH  100%=      5-min Rain = 0
KPMS 141720Z 34014KT M00/M00 A3012 RMK A01 T10011003  RH  100%=      5-min Rain = 0.01
KPMS 141725Z 34016KT M00/M00 A3012 RMK A01 T10011003  RH  100%=      5-min Rain = 0
KPMS 141730Z 35015G20KT M00/M00 A3012 RMK A01 T10021004  RH  100%=      5-min Rain = 0
KPMS 141735Z 34014KT M00/M00 A3012 RMK A01 T10021004  RH  100%=      5-min Rain = 0
KPMS 141740Z 34014KT M00/M00 A3012 RMK A01 T10021004  RH  100%=      5-min Rain = 0.01
KPMS 141745Z 34014KT M00/M00 A3012 RMK A01 T10021004  RH  100%=      5-min Rain = 0
KPMS 141750Z 34014KT M00/M00 A3012 RMK A01 T10031004  RH  100%=      5-min Rain = 0
KPMS 141755Z 33015KT M00/M00 A3011 RMK A01 T10031004  RH  100%=      5-min Rain = 0
KPMS 141800Z 34017KT M00/M01 A3012 RMK A01 T10031005  RH  100%=      5-min Rain = 0
KPMS 141805Z 34016KT M00/M01 A3012 RMK A01 T10041005  RH  100%=      5-min Rain = 0
KPMS 141810Z 34015KT M00/M01 A3012 RMK A01 T10041006  RH  100%=      5-min Rain = 0
KPMS 141815Z 34013KT M00/M01 A3012 RMK A01 T10041005  RH  100%=      5-min Rain = 0.01
KPMS 141820Z 34013KT M00/M01 A3012 RMK A01 T10041005  RH  100%=      5-min Rain = 0
KPMS 141825Z 35012KT M00/M01 A3012 RMK A01 T10041005  RH  100%=      5-min Rain = 0
KPMS 141830Z 35012KT M00/M01 A3012 RMK A01 T10031005  RH  100%=      5-min Rain = 0
KPMS 141835Z 35012KT M00/M01 A3012 RMK A01 T10031005  RH  100%=      5-min Rain = 0
KPMS 141840Z 35012KT M00/M00 A3012 RMK A01 T10031004  RH  100%=      5-min Rain = 0
KPMS 141845Z 35011KT M00/M00 A3012 RMK A01 T10031004  RH  100%=      5-min Rain = 0
KPMS 141850Z 34011KT M00/M00 A3011 RMK A01 T10031004  RH  100%=      5-min Rain = 0
KPMS 141855Z 33013G18KT M00/M00 A3011 RMK A01 T10031004  RH  100%=      5-min Rain = 0
KPMS 141900Z 33015KT M00/M01 A3011 RMK A01 T10041006  RH  100%=      5-min Rain = 0.01
KPMS 141905Z 32015KT M00/M01 A301 RMK A01 T10041005  RH  100%=      5-min Rain = 0
KPMS 141910Z 32014KT M00/M00 A301 RMK A01 T10021004  RH  100%=      5-min Rain = 0
KPMS 141915Z 33013KT M00/M00 A301 RMK A01 T10011002  RH  100%=      5-min Rain = 0
KPMS 141920Z 32014G19KT 00/M00 A301 RMK A01 T00011001  RH  100%=      5-min Rain = 0
KPMS 141925Z 32014KT 00/M00 A301 RMK A01 T00011004  RH  097%=      5-min Rain = 0
KPMS 141930Z 32015KT 00/M01 A301 RMK A01 T00021008  RH  094%=      5-min Rain = 0
KPMS 141935Z 33014KT 00/M01 A301 RMK A01 T00031009  RH  092%=      5-min Rain = 0
KPMS 141940Z 33015KT 00/M01 A301 RMK A01 T00041010  RH  091%=      5-min Rain = 0
KPMS 141945Z 33016KT 01/M01 A301 RMK A01 T00051013  RH  089%=      5-min Rain = 0.01
KPMS 141950Z 33016KT 01/M01 A301 RMK A01 T00071014  RH  087%=      5-min Rain = 0
KPMS 141955Z 33016KT 01/M01 A301 RMK A01 T00071012  RH  088%=      5-min Rain = 0
KPMS 142000Z 33015KT 01/M01 A301 RMK A01 T00081010  RH  089%=      5-min Rain = 0
KPMS 142005Z 33014KT 01/M01 A301 RMK A01 T00081009  RH  089%=      5-min Rain = 0
KPMS 142010Z 33013KT 01/M01 A301 RMK A01 T00081008  RH  090%=      5-min Rain = 0
KPMS 142015Z 33014KT 01/M01 A301 RMK A01 T00091008  RH  089%=      5-min Rain = 0.01
KPMS 142020Z 33014KT 01/M01 A3009 RMK A01 T00101009  RH  089%=      5-min Rain = 0
KPMS 142025Z 33015KT 01/M01 A3009 RMK A01 T00101010  RH  088%=      5-min Rain = 0
KPMS 142030Z 33016KT 01/M01 A3009 RMK A01 T00111010  RH  087%=      5-min Rain = 0
KPMS 142035Z 32016KT 01/M01 A3008 RMK A01 T00111010  RH  087%=      5-min Rain = 0
KPMS 142040Z 33016G21KT 01/M01 A3008 RMK A01 T00111010  RH  087%=      5-min Rain = 0
KPMS 142045Z 33016KT 01/M01 A3009 RMK A01 T00121010  RH  086%=      5-min Rain = 0.01
KPMS 142050Z 33015KT 01/M01 A3008 RMK A01 T00121009  RH  087%=      5-min Rain = 0
KPMS 142055Z 33015KT 01/M01 A3008 RMK A01 T00121008  RH  087%=      5-min Rain = 0
KPMS 142100Z 33016KT 01/M01 A3008 RMK A01 T00131009  RH  086%=      5-min Rain = 0
KPMS 142105Z 34016KT 01/M01 A3008 RMK A01 T00131009  RH  086%=      5-min Rain = 0
KPMS 142110Z 33018G24KT 01/M01 A3008 RMK A01 T00141008  RH  086%=      5-min Rain = 0.01
KPMS 142115Z 33020KT 01/M01 A3008 RMK A01 T00141010  RH  085%=      5-min Rain = 0
KPMS 142120Z 33020G25KT 02/M01 A3008 RMK A01 T00151009  RH  085%=      5-min Rain = 0
KPMS 142125Z 33020G25KT 02/M01 A3008 RMK A01 T00161010  RH  084%=      5-min Rain = 0
KPMS 142130Z 33020G28KT 02/M01 A3008 RMK A01 T00171010  RH  083%=      5-min Rain = 0.01
KPMS 142135Z 33020G25KT 02/M01 A3008 RMK A01 T00201013  RH  080%=      5-min Rain = 0
KPMS 142140Z 34021G26KT 02/M01 A3008 RMK A01 T00211014  RH  079%=      5-min Rain = 0
KPMS 142145Z 33017G24KT 02/M01 A3008 RMK A01 T00221012  RH  079%=      5-min Rain = 0
KPMS 142150Z 33015G21KT 02/M01 A3007 RMK A01 T00211011  RH  080%=      5-min Rain = 0.01
KPMS 142155Z 33015G20KT 02/M01 A3008 RMK A01 T00221011  RH  080%=      5-min Rain = 0
KPMS 142200Z 33013KT 02/M01 A3008 RMK A01 T00211007  RH  082%=      5-min Rain = 0
KPMS 142205Z 33011KT 02/M01 A3008 RMK A01 T00211006  RH  083%=      5-min Rain = 0.01
KPMS 142210Z 33011KT 02/M01 A3008 RMK A01 T00211005  RH  084%=      5-min Rain = 0
KPMS 142215Z 33010KT 02/M00 A3007 RMK A01 T00211004  RH  084%=      5-min Rain = 0
KPMS 142220Z 33010KT 02/M00 A3007 RMK A01 T00211004  RH  084%=      5-min Rain = 0.01
KPMS 142225Z 32010KT 02/M00 A3007 RMK A01 T00201003  RH  085%=      5-min Rain = 0
KPMS 142230Z 32010KT 02/M00 A3007 RMK A01 T00201004  RH  085%=      5-min Rain = 0
KPMS 142235Z 32010KT 02/M00 A3007 RMK A01 T00211004  RH  085%=      5-min Rain = 0.01
KPMS 142240Z 33010KT 02/M00 A3007 RMK A01 T00211003  RH  085%=      5-min Rain = 0
KPMS 142245Z 33009KT 02/M00 A3007 RMK A01 T00221003  RH  085%=      5-min Rain = 0
KPMS 142250Z 33008KT 02/M00 A3007 RMK A01 T00231003  RH  084%=      5-min Rain = 0.01
KPMS 142255Z 33008KT 02/M00 A3007 RMK A01 T00231001  RH  085%=      5-min Rain = 0
KPMS 142300Z 33009KT 02/M00 A3008 RMK A01 T00231001  RH  086%=      5-min Rain = 0
KPMS 142305Z 33008KT 02/00 A3008 RMK A01 T00230000  RH  086%=      5-min Rain = 0.01
KPMS 142310Z 33008KT 02/00 A3008 RMK A01 T00230000  RH  086%=      5-min Rain = 0
KPMS 142315Z 33007KT 02/00 A3008 RMK A01 T00240000  RH  086%=      5-min Rain = 0
KPMS 142320Z 33007KT 02/00 A3008 RMK A01 T002400-0  RH  085%=      5-min Rain = 0.01
KPMS 142325Z 33008KT 03/00 A3008 RMK A01 T002500-0  RH  085%=      5-min Rain = 0
KPMS 142330Z 32008KT 02/00 A3008 RMK A01 T002400-0  RH  085%=      5-min Rain = 0
KPMS 142335Z 32009KT 03/00 A3008 RMK A01 T002500-0  RH  084%=      5-min Rain = 0
KPMS 142340Z 32010KT 03/M00 A3008 RMK A01 T00261001  RH  083%=      5-min Rain = 0.01
KPMS 142345Z 32011KT 03/M00 A3008 RMK A01 T00261002  RH  083%=      5-min Rain = 0
KPMS 142350Z 32011KT 03/M00 A3008 RMK A01 T00281002  RH  082%=      5-min Rain = 0
KPMS 142355Z 32011KT 03/M00 A3008 RMK A01 T00271001  RH  082%=      5-min Rain = 0
KPMS 150000Z 32011KT 03/M00 A3008 RMK A01 T00271002  RH  082%=      5-min Rain = 0.01
KPMS 150005Z 32011KT 03/M00 A3008 RMK A01 T00271001  RH  083%=      5-min Rain = 0
KPMS 150010Z 32011KT 03/M00 A3008 RMK A01 T00261001  RH  083%=      5-min Rain = 0
KPMS 150015Z 32011KT 03/M00 A3008 RMK A01 T00261002  RH  083%=      5-min Rain = 0
KPMS 150020Z 33010KT 03/M00 A3009 RMK A01 T00261002  RH  083%=      5-min Rain = 0.01
KPMS 150025Z 33010KT 03/M00 A3009 RMK A01 T00261003  RH  082%=      5-min Rain = 0
KPMS 150030Z 33011KT 03/M00 A3009 RMK A01 T00271004  RH  081%=      5-min Rain = 0
KPMS 150035Z 33010KT 03/M01 A3009 RMK A01 T00281005  RH  080%=      5-min Rain = 0
KPMS 150040Z 34009KT 03/M01 A3009 RMK A01 T00281006  RH  079%=      5-min Rain = 0
KPMS 150045Z 34009KT 03/M01 A301 RMK A01 T00271007  RH  079%=      5-min Rain = 0
KPMS 150050Z 33009KT 03/M01 A301 RMK A01 T00271008  RH  079%=      5-min Rain = 0.01
KPMS 150055Z 34008KT 03/M01 A301 RMK A01 T00261008  RH  079%=      5-min Rain = 0
KPMS 150100Z 34008KT 03/M01 A301 RMK A01 T00261009  RH  079%=      5-min Rain = 0
KPMS 150105Z 34008KT 03/M01 A301 RMK A01 T00261009  RH  079%=      5-min Rain = 0
KPMS 150110Z 34008KT 03/M01 A301 RMK A01 T00251008  RH  080%=      5-min Rain = 0
KPMS 150115Z 33007KT 02/M01 A301 RMK A01 T00241009  RH  080%=      5-min Rain = 0
KPMS 150120Z 32008KT 02/M01 A3011 RMK A01 T00231009  RH  080%=      5-min Rain = 0
KPMS 150125Z 32008KT 02/M01 A3011 RMK A01 T00231010  RH  080%=      5-min Rain = 0
KPMS 150130Z 32008KT 02/M01 A3011 RMK A01 T00231010  RH  080%=      5-min Rain = 0
KPMS 150135Z 32008KT 02/M01 A3011 RMK A01 T00241011  RH  079%=      5-min Rain = 0
KPMS 150140Z 33008KT 02/M01 A3011 RMK A01 T00231011  RH  079%=      5-min Rain = 0
KPMS 150145Z 32008KT 02/M01 A3011 RMK A01 T00231012  RH  079%=      5-min Rain = 0
KPMS 150150Z 32008KT 02/M01 A3011 RMK A01 T00231012  RH  079%=      5-min Rain = 0.01
KPMS 150155Z 32008KT 02/M01 A3011 RMK A01 T00221013  RH  078%=      5-min Rain = 0
KPMS 150200Z 31008KT 02/M01 A3012 RMK A01 T00211013  RH  079%=      5-min Rain = 0
KPMS 150205Z 31008KT 02/M01 A3012 RMK A01 T00211014  RH  078%=      5-min Rain = 0
KPMS 150210Z 30008KT 02/M01 A3012 RMK A01 T00211014  RH  079%=      5-min Rain = 0
KPMS 150215Z 30009KT 02/M01 A3012 RMK A01 T00211014  RH  079%=      5-min Rain = 0
KPMS 150220Z 30008KT 02/M01 A3012 RMK A01 T00201014  RH  079%=      5-min Rain = 0
KPMS 150225Z 30008KT 02/M01 A3012 RMK A01 T00191014  RH  080%=      5-min Rain = 0
KPMS 150230Z 30008KT 02/M02 A3013 RMK A01 T00181015  RH  080%=      5-min Rain = 0
KPMS 150235Z 30007KT 02/M02 A3013 RMK A01 T00161016  RH  080%=      5-min Rain = 0
KPMS 150240Z 30006KT 02/M02 A3013 RMK A01 T00171017  RH  079%=      5-min Rain = 0
KPMS 150245Z 30007KT 01/M02 A3013 RMK A01 T00131018  RH  081%=      5-min Rain = 0
KPMS 150250Z 30007KT 01/M02 A3013 RMK A01 T00131019  RH  080%=      5-min Rain = 0
KPMS 150255Z 30008KT 01/M02 A3013 RMK A01 T00131018  RH  081%=      5-min Rain = 0
KPMS 150300Z 30007KT 01/M02 A3013 RMK A01 T00141017  RH  081%=      5-min Rain = 0
KPMS 150305Z 30007KT 01/M02 A3013 RMK A01 T00131018  RH  081%=      5-min Rain = 0
KPMS 150310Z 30007KT 01/M02 A3013 RMK A01 T00111019  RH  082%=      5-min Rain = 0
KPMS 150315Z 30007KT 01/M02 A3013 RMK A01 T00111019  RH  082%=      5-min Rain = 0
KPMS 150320Z 30008KT 01/M02 A3013 RMK A01 T00121018  RH  081%=      5-min Rain = 0
KPMS 150325Z 30007KT 02/M02 A3014 RMK A01 T00151018  RH  080%=      5-min Rain = 0
KPMS 150330Z 29007KT 02/M02 A3014 RMK A01 T00161018  RH  079%=      5-min Rain = 0
KPMS 150335Z 29007KT 02/M02 A3014 RMK A01 T00161019  RH  078%=      5-min Rain = 0
KPMS 150340Z 29007KT 02/M02 A3014 RMK A01 T00161019  RH  078%=      5-min Rain = 0
KPMS 150345Z 29007KT 02/M02 A3014 RMK A01 T00181019  RH  077%=      5-min Rain = 0
KPMS 150350Z 29007KT 02/M02 A3014 RMK A01 T00181019  RH  077%=      5-min Rain = 0
KPMS 150355Z 29007KT 02/M02 A3014 RMK A01 T00171019  RH  078%=      5-min Rain = 0
KPMS 150400Z 30007KT 02/M02 A3014 RMK A01 T00161019  RH  078%=      5-min Rain = 0
KPMS 150405Z 30007KT 02/M02 A3014 RMK A01 T00151020  RH  079%=      5-min Rain = 0
KPMS 150410Z 30007KT 02/M02 A3014 RMK A01 T00151019  RH  079%=      5-min Rain = 0
KPMS 150415Z 30007KT 02/M02 A3014 RMK A01 T00151019  RH  079%=      5-min Rain = 0
KPMS 150420Z 30008KT 02/M02 A3014 RMK A01 T00151019  RH  079%=      5-min Rain = 0
KPMS 150425Z 30008KT 02/M02 A3014 RMK A01 T00151020  RH  078%=      5-min Rain = 0
KPMS 150430Z 30009KT 01/M02 A3014 RMK A01 T00141021  RH  078%=      5-min Rain = 0
KPMS 150435Z 30009KT 01/M02 A3014 RMK A01 T00141022  RH  078%=      5-min Rain = 0
KPMS 150440Z 30009KT 01/M02 A3014 RMK A01 T00141022  RH  078%=      5-min Rain = 0
KPMS 150445Z 30009KT 01/M02 A3014 RMK A01 T00131023  RH  077%=      5-min Rain = 0
KPMS 150450Z 30009KT 01/M02 A3014 RMK A01 T00111024  RH  078%=      5-min Rain = 0
KPMS 150455Z 31009KT 01/M03 A3014 RMK A01 T00081025  RH  080%=      5-min Rain = 0
KPMS 150500Z 31010KT 01/M03 A3014 RMK A01 T00091026  RH  079%=      5-min Rain = 0
KPMS 150505Z 31010KT 01/M03 A3014 RMK A01 T00091027  RH  078%=      5-min Rain = 0
KPMS 150510Z 31009KT 01/M03 A3014 RMK A01 T00091027  RH  078%=      5-min Rain = 0
KPMS 150515Z 30009KT 01/M03 A3014 RMK A01 T00091027  RH  077%=      5-min Rain = 0
KPMS 150520Z 30008KT 01/M03 A3015 RMK A01 T00081028  RH  078%=      5-min Rain = 0
KPMS 150525Z 30009KT 01/M03 A3015 RMK A01 T00071028  RH  078%=      5-min Rain = 0
KPMS 150530Z 30008KT 01/M03 A3015 RMK A01 T00061029  RH  078%=      5-min Rain = 0
KPMS 150535Z 31008KT 00/M03 A3015 RMK A01 T00041030  RH  079%=      5-min Rain = 0
KPMS 150540Z 30008KT 00/M03 A3015 RMK A01 T00021030  RH  080%=      5-min Rain = 0
KPMS 150545Z 30008KT 00/M03 A3015 RMK A01 T00031030  RH  080%=      5-min Rain = 0
KPMS 150550Z 30008KT 00/M03 A3015 RMK A01 T00021031  RH  080%=      5-min Rain = 0
KPMS 150555Z 30008KT 00/M03 A3015 RMK A01 T00011031  RH  080%=      5-min Rain = 0

Page generated in 0.0152 seconds.